Time;durP1;ratioP1;P1;durP2;ratioP2;P2;SDS_P1;SDS_P2;PMS_P1;PMS_P2;Temp;Humidity;BMP_temperature;BMP_pressure;BME280_temperature;BME280_humidity;BME280_pressure;Samples;Min_cycle;Max_cycle;Signal;HPM_P1;HPM_P2
2023/05/12 00:02:21;;;;;;;5.05;2.53;;;;;;;;;;4989402;28;20270;-68
2023/05/12 00:04:46;;;;;;;3.42;2.47;;;;;;;;;;4992820;28;20182;-68
2023/05/12 00:07:11;;;;;;;4.07;2.58;;;;;;;;;;4989707;28;20215;-68
2023/05/12 00:09:36;;;;;;;3.47;2.67;;;;;;;;;;4991760;28;20234;-68
2023/05/12 00:12:02;;;;;;;5.25;3.72;;;;;;;;;;4988243;28;20693;-68
2023/05/12 00:14:27;;;;;;;5.65;3.40;;;;;;;;;;4992190;28;20180;-68
2023/05/12 00:16:52;;;;;;;5.32;2.45;;;;;;;;;;4980455;28;20272;-68
2023/05/12 00:19:18;;;;;;;4.57;3.20;;;;;;;;;;4984157;28;20594;-68
2023/05/12 00:21:44;;;;;;;5.57;3.00;;;;;;;;;;4987644;28;20223;-68
2023/05/12 00:24:09;;;;;;;5.57;3.00;;;;;;;;;;4990988;28;20180;-68
2023/05/12 00:26:34;;;;;;;5.10;3.10;;;;;;;;;;4990948;28;20604;-68
2023/05/12 00:28:59;;;;;;;4.75;2.85;;;;;;;;;;4975444;28;20180;-68
2023/05/12 00:31:25;;;;;;;6.57;3.33;;;;;;;;;;4988661;28;20188;-67
2023/05/12 00:33:50;;;;;;;4.60;2.83;;;;;;;;;;4994647;28;20175;-67
2023/05/12 00:36:15;;;;;;;5.75;3.13;;;;;;;;;;4991066;28;20171;-68
2023/05/12 00:38:41;;;;;;;4.88;2.95;;;;;;;;;;4988290;28;20195;-67
2023/05/12 00:41:06;;;;;;;5.93;2.97;;;;;;;;;;4988746;28;20203;-68
2023/05/12 00:43:32;;;;;;;6.25;2.67;;;;;;;;;;4988191;28;20184;-68
2023/05/12 00:45:58;;;;;;;5.03;3.00;;;;;;;;;;4988693;28;20180;-68
2023/05/12 00:48:23;;;;;;;5.60;3.00;;;;;;;;;;4986630;28;20208;-68
2023/05/12 00:50:48;;;;;;;6.57;3.33;;;;;;;;;;4988086;28;20179;-67
2023/05/12 00:53:13;;;;;;;3.92;3.00;;;;;;;;;;4991749;28;20272;-68
2023/05/12 00:55:38;;;;;;;6.25;3.13;;;;;;;;;;4987985;28;20182;-68
2023/05/12 00:58:04;;;;;;;4.82;2.92;;;;;;;;;;4986822;28;20678;-68
2023/05/12 01:00:29;;;;;;;6.10;3.38;;;;;;;;;;4988538;28;20176;-68
2023/05/12 01:02:57;;;;;;;6.35;3.17;;;;;;;;;;4987247;28;20781;-68
2023/05/12 01:05:24;;;;;;;5.40;3.75;;;;;;;;;;4984452;28;20229;-68
2023/05/12 01:07:50;;;;;;;5.95;3.30;;;;;;;;;;4990210;28;20223;-69
2023/05/12 01:10:19;;;;;;;6.63;3.72;;;;;;;;;;4991871;28;20176;-68
2023/05/12 01:12:44;;;;;;;6.43;3.60;;;;;;;;;;4988154;28;20290;-68
2023/05/12 01:15:10;;;;;;;4.85;3.55;;;;;;;;;;4989687;28;20254;-68
2023/05/12 01:17:36;;;;;;;5.88;4.28;;;;;;;;;;4989205;28;20574;-68
2023/05/12 01:20:03;;;;;;;7.05;3.47;;;;;;;;;;4991839;28;20575;-68
2023/05/12 01:22:32;;;;;;;4.22;3.03;;;;;;;;;;4988601;28;20215;-68
2023/05/12 01:25:03;;;;;;;5.60;3.95;;;;;;;;;;4992144;28;20577;-68
2023/05/12 01:27:29;;;;;;;4.22;3.20;;;;;;;;;;4988533;28;20666;-67
2023/05/12 01:29:57;;;;;;;4.68;3.33;;;;;;;;;;4979286;28;20180;-68
2023/05/12 01:32:23;;;;;;;5.28;3.33;;;;;;;;;;4986229;28;20200;-67
2023/05/12 01:34:49;;;;;;;4.40;3.10;;;;;;;;;;4983325;28;20238;-68
2023/05/12 01:37:14;;;;;;;5.20;3.33;;;;;;;;;;4986784;28;20678;-68
2023/05/12 01:39:40;;;;;;;5.55;4.00;;;;;;;;;;4984164;28;20267;-68
2023/05/12 01:42:05;;;;;;;5.45;4.07;;;;;;;;;;5009092;28;20965;-67
2023/05/12 01:44:31;;;;;;;4.95;3.50;;;;;;;;;;4992248;28;20182;-68
2023/05/12 01:46:56;;;;;;;5.53;3.55;;;;;;;;;;4994033;28;20628;-68
2023/05/12 01:49:21;;;;;;;5.20;3.72;;;;;;;;;;4989946;28;20183;-68
2023/05/12 01:51:46;;;;;;;5.93;3.58;;;;;;;;;;4992431;28;20756;-68
2023/05/12 01:54:12;;;;;;;4.68;3.65;;;;;;;;;;4990744;28;20187;-69
2023/05/12 01:56:37;;;;;;;4.72;3.47;;;;;;;;;;4981372;28;20246;-69
2023/05/12 01:59:02;;;;;;;7.35;3.60;;;;;;;;;;4976843;28;20706;-68
2023/05/12 02:01:27;;;;;;;4.82;3.33;;;;;;;;;;4988814;28;20245;-69
2023/05/12 02:03:56;;;;;;;4.78;3.10;;;;;;;;;;4989208;28;20176;-69
2023/05/12 02:06:21;;;;;;;5.18;3.70;;;;;;;;;;4991417;28;20179;-69
2023/05/12 02:08:46;;;;;;;5.70;3.65;;;;;;;;;;4989048;28;20210;-69
2023/05/12 02:11:11;;;;;;;5.85;4.10;;;;;;;;;;4992502;28;20183;-69
2023/05/12 02:13:37;;;;;;;6.30;3.80;;;;;;;;;;4990722;28;20237;-69
2023/05/12 02:16:02;;;;;;;6.85;3.72;;;;;;;;;;4988295;28;20202;-69
2023/05/12 02:18:28;;;;;;;6.35;3.42;;;;;;;;;;4999147;28;20598;-69
2023/05/12 02:20:53;;;;;;;4.88;3.55;;;;;;;;;;4989225;28;20180;-68
2023/05/12 02:23:18;;;;;;;6.40;3.60;;;;;;;;;;4990562;28;20558;-69
2023/05/12 02:25:43;;;;;;;5.10;3.85;;;;;;;;;;4988349;28;20183;-69
2023/05/12 02:28:10;;;;;;;5.57;4.00;;;;;;;;;;4989293;28;20277;-68
2023/05/12 02:30:35;;;;;;;5.55;3.45;;;;;;;;;;4989660;28;20194;-68
2023/05/12 02:33:01;;;;;;;6.45;2.95;;;;;;;;;;4996615;28;20200;-68
2023/05/12 02:35:26;;;;;;;4.40;2.90;;;;;;;;;;4993138;28;20210;-68
2023/05/12 02:37:51;;;;;;;4.47;2.65;;;;;;;;;;4996717;28;20203;-69
2023/05/12 02:40:17;;;;;;;4.13;2.50;;;;;;;;;;4981427;28;20661;-69
2023/05/12 02:42:42;;;;;;;5.55;2.92;;;;;;;;;;4988270;28;20540;-69
2023/05/12 02:45:09;;;;;;;7.25;3.42;;;;;;;;;;4986761;28;20200;-69
2023/05/12 02:47:35;;;;;;;5.05;2.67;;;;;;;;;;4989665;28;20203;-69
2023/05/12 02:50:00;;;;;;;4.32;2.70;;;;;;;;;;4989147;28;20271;-70
2023/05/12 02:52:25;;;;;;;3.65;2.40;;;;;;;;;;4989616;28;20358;-69
2023/05/12 02:54:50;;;;;;;4.75;2.08;;;;;;;;;;4993617;28;20184;-69
2023/05/12 02:57:16;;;;;;;3.72;1.83;;;;;;;;;;4993313;28;20654;-69
2023/05/12 02:59:41;;;;;;;3.30;2.50;;;;;;;;;;4992780;28;20203;-69
2023/05/12 03:02:06;;;;;;;3.03;2.15;;;;;;;;;;4991971;28;20311;-69
2023/05/12 03:04:32;;;;;;;3.65;2.55;;;;;;;;;;4992870;28;20206;-69
2023/05/12 03:06:58;;;;;;;2.13;1.63;;;;;;;;;;4986879;28;20303;-68
2023/05/12 03:09:23;;;;;;;3.00;1.70;;;;;;;;;;5007516;28;20654;-69
2023/05/12 03:11:49;;;;;;;2.38;1.58;;;;;;;;;;4993697;28;20278;-69
2023/05/12 03:14:14;;;;;;;2.75;1.63;;;;;;;;;;4986554;28;20653;-68
2023/05/12 03:16:39;;;;;;;1.90;1.70;;;;;;;;;;4993703;28;20273;-69
2023/05/12 03:19:05;;;;;;;2.42;1.58;;;;;;;;;;4996229;28;20473;-69
2023/05/12 03:21:30;;;;;;;2.25;1.60;;;;;;;;;;4992793;28;20186;-69
2023/05/12 03:23:56;;;;;;;1.33;1.13;;;;;;;;;;4993482;28;20295;-69
2023/05/12 03:26:21;;;;;;;2.00;1.27;;;;;;;;;;4991171;28;20716;-69
2023/05/12 03:28:46;;;;;;;2.47;1.88;;;;;;;;;;4989966;28;20196;-69
2023/05/12 03:31:12;;;;;;;2.50;1.58;;;;;;;;;;4990864;28;20528;-69
2023/05/12 03:33:37;;;;;;;2.60;1.95;;;;;;;;;;4988656;28;20319;-69
2023/05/12 03:36:02;;;;;;;2.90;1.92;;;;;;;;;;4988973;28;20215;-70
2023/05/12 03:38:27;;;;;;;2.50;1.83;;;;;;;;;;4990406;28;20605;-70
2023/05/12 03:41:01;;;;;;;3.67;2.45;;;;;;;;;;4991505;28;20183;-69
2023/05/12 03:43:27;;;;;;;4.65;2.92;;;;;;;;;;4990927;28;20207;-69
2023/05/12 03:45:52;;;;;;;3.40;2.38;;;;;;;;;;4991333;28;20175;-68
2023/05/12 03:48:17;;;;;;;5.80;3.30;;;;;;;;;;4992097;28;20234;-69
2023/05/12 03:50:42;;;;;;;6.50;3.22;;;;;;;;;;4998179;28;20221;-68
2023/05/12 03:53:07;;;;;;;5.93;3.13;;;;;;;;;;4990799;28;20203;-69
2023/05/12 03:55:33;;;;;;;7.60;3.85;;;;;;;;;;4998567;28;20657;-69
2023/05/12 03:57:58;;;;;;;6.05;3.90;;;;;;;;;;4991175;28;20216;-68
2023/05/12 04:00:23;;;;;;;7.20;3.83;;;;;;;;;;4993516;28;20214;-70
2023/05/12 04:02:49;;;;;;;8.45;4.22;;;;;;;;;;4986081;28;20186;-69
2023/05/12 04:05:15;;;;;;;8.43;4.88;;;;;;;;;;4994494;28;20189;-69
2023/05/12 04:07:40;;;;;;;10.15;4.72;;;;;;;;;;4989482;28;20218;-69
2023/05/12 04:10:05;;;;;;;9.65;5.65;;;;;;;;;;4993311;28;20183;-69
2023/05/12 04:12:30;;;;;;;10.70;5.68;;;;;;;;;;4990421;28;20562;-68
2023/05/12 04:14:56;;;;;;;9.48;5.63;;;;;;;;;;4983328;28;20188;-69
2023/05/12 04:17:21;;;;;;;10.68;6.25;;;;;;;;;;4991068;28;20195;-68
2023/05/12 04:19:46;;;;;;;15.48;7.22;;;;;;;;;;4992400;28;20183;-69
2023/05/12 04:22:11;;;;;;;15.02;8.23;;;;;;;;;;4990371;28;20674;-69
2023/05/12 04:24:37;;;;;;;16.83;8.57;;;;;;;;;;4990544;28;20580;-69
2023/05/12 04:27:02;;;;;;;17.60;8.43;;;;;;;;;;4990687;28;20200;-70
2023/05/12 04:29:28;;;;;;;17.58;9.90;;;;;;;;;;4986496;28;20194;-68
2023/05/12 04:31:53;;;;;;;16.05;8.55;;;;;;;;;;4982843;28;20234;-69
2023/05/12 04:34:18;;;;;;;18.27;9.68;;;;;;;;;;4994058;28;20710;-69
2023/05/12 04:36:44;;;;;;;18.38;9.43;;;;;;;;;;4990633;28;20222;-68
2023/05/12 04:39:09;;;;;;;21.73;10.27;;;;;;;;;;4988361;28;20172;-68
2023/05/12 04:41:35;;;;;;;21.58;9.45;;;;;;;;;;4994513;28;20187;-69
2023/05/12 04:44:00;;;;;;;20.77;10.10;;;;;;;;;;4997051;28;20179;-68
2023/05/12 04:46:25;;;;;;;21.23;10.73;;;;;;;;;;4992929;28;20201;-68
2023/05/12 04:48:50;;;;;;;19.40;9.77;;;;;;;;;;4970605;28;20176;-68
2023/05/12 04:51:16;;;;;;;25.90;11.48;;;;;;;;;;4968256;28;20911;-69
2023/05/12 04:53:41;;;;;;;23.02;11.85;;;;;;;;;;4965854;28;20681;-69
2023/05/12 04:56:06;;;;;;;25.52;11.00;;;;;;;;;;4970150;28;20275;-69
2023/05/12 04:58:32;;;;;;;22.50;11.90;;;;;;;;;;4968394;28;20207;-69
2023/05/12 05:00:57;;;;;;;23.42;10.40;;;;;;;;;;4966876;28;20207;-69
2023/05/12 05:03:22;;;;;;;21.25;10.18;;;;;;;;;;4967777;28;20202;-68
2023/05/12 05:05:47;;;;;;;24.77;11.38;;;;;;;;;;4967367;28;20237;-69
2023/05/12 05:08:13;;;;;;;28.48;11.88;;;;;;;;;;4957531;28;20219;-69
2023/05/12 05:10:38;;;;;;;26.70;12.30;;;;;;;;;;4967392;28;20749;-69
2023/05/12 05:13:03;;;;;;;31.95;13.35;;;;;;;;;;4966167;28;20618;-68
2023/05/12 05:15:28;;;;;;;25.80;13.32;;;;;;;;;;4966722;28;20191;-68
2023/05/12 05:17:53;;;;;;;23.17;12.35;;;;;;;;;;4968782;28;20203;-69
2023/05/12 05:20:19;;;;;;;30.23;13.00;;;;;;;;;;4967192;28;20227;-68
2023/05/12 05:22:44;;;;;;;31.90;13.10;;;;;;;;;;4967937;28;20187;-68
2023/05/12 05:25:10;;;;;;;29.63;13.02;;;;;;;;;;4969619;28;20188;-68
2023/05/12 05:27:37;;;;;;;29.23;13.45;;;;;;;;;;4971454;28;20209;-68
2023/05/12 05:30:02;;;;;;;31.20;14.70;;;;;;;;;;4967105;28;20179;-69
2023/05/12 05:32:27;;;;;;;30.23;14.02;;;;;;;;;;4968245;28;20215;-68
2023/05/12 05:34:53;;;;;;;29.15;12.73;;;;;;;;;;4967872;28;20247;-68
2023/05/12 05:37:18;;;;;;;24.38;12.45;;;;;;;;;;4968331;28;20214;-69
2023/05/12 05:39:43;;;;;;;28.25;13.88;;;;;;;;;;4966407;28;20190;-67
2023/05/12 05:42:08;;;;;;;31.08;12.77;;;;;;;;;;4969467;28;20281;-68
2023/05/12 05:44:34;;;;;;;29.73;14.20;;;;;;;;;;4969531;28;20179;-69
2023/05/12 05:47:01;;;;;;;31.08;15.98;;;;;;;;;;4971485;28;20824;-68
2023/05/12 05:49:26;;;;;;;28.67;13.88;;;;;;;;;;4969048;28;20215;-68
2023/05/12 05:51:52;;;;;;;30.45;15.82;;;;;;;;;;4968897;28;20215;-69
2023/05/12 05:54:17;;;;;;;26.10;13.18;;;;;;;;;;4966480;28;20566;-68
2023/05/12 05:56:42;;;;;;;30.45;14.80;;;;;;;;;;4970274;28;20674;-68
2023/05/12 05:59:08;;;;;;;28.92;13.93;;;;;;;;;;4968852;28;20187;-68
2023/05/12 06:01:33;;;;;;;28.05;12.85;;;;;;;;;;4970052;28;20194;-69
2023/05/12 06:03:59;;;;;;;31.80;14.52;;;;;;;;;;4967909;28;20658;-68
2023/05/12 06:06:24;;;;;;;28.02;13.68;;;;;;;;;;4968249;28;20271;-68
2023/05/12 06:08:49;;;;;;;28.10;14.75;;;;;;;;;;4967566;28;20258;-68
2023/05/12 06:11:15;;;;;;;31.67;15.55;;;;;;;;;;4966866;28;20667;-69
2023/05/12 06:13:40;;;;;;;30.98;14.50;;;;;;;;;;4966589;28;20211;-69
2023/05/12 06:16:05;;;;;;;27.42;14.07;;;;;;;;;;4968051;28;20203;-68
2023/05/12 06:18:35;;;;;;;28.30;15.10;;;;;;;;;;4965797;28;20207;-70
2023/05/12 06:21:01;;;;;;;27.52;14.98;;;;;;;;;;4966868;28;20183;-69
2023/05/12 06:23:26;;;;;;;33.03;15.98;;;;;;;;;;4970028;28;20184;-69
2023/05/12 06:25:51;;;;;;;28.50;14.30;;;;;;;;;;4972736;28;20279;-68
2023/05/12 06:28:16;;;;;;;25.20;13.75;;;;;;;;;;4971003;28;20298;-69
2023/05/12 06:30:41;;;;;;;24.42;13.65;;;;;;;;;;4972275;28;20670;-68
2023/05/12 06:33:07;;;;;;;26.80;12.88;;;;;;;;;;4971910;28;20265;-69
2023/05/12 06:35:32;;;;;;;29.23;14.25;;;;;;;;;;4971111;28;20180;-68
2023/05/12 06:37:57;;;;;;;28.15;14.80;;;;;;;;;;4972642;28;20583;-70
2023/05/12 06:40:22;;;;;;;26.42;14.15;;;;;;;;;;4972322;28;20653;-68
2023/05/12 06:42:48;;;;;;;25.15;14.10;;;;;;;;;;4972329;28;20191;-68
2023/05/12 06:45:13;;;;;;;23.35;14.13;;;;;;;;;;4977470;28;20180;-69
2023/05/12 06:47:39;;;;;;;24.13;13.20;;;;;;;;;;4971808;28;20257;-68
2023/05/12 06:50:05;;;;;;;25.55;14.05;;;;;;;;;;4972719;28;20192;-68
2023/05/12 06:52:30;;;;;;;26.73;14.45;;;;;;;;;;4971302;28;20697;-68
2023/05/12 06:54:55;;;;;;;22.48;13.27;;;;;;;;;;4971958;28;20258;-68
2023/05/12 06:57:20;;;;;;;23.17;12.88;;;;;;;;;;4966894;28;20227;-68
2023/05/12 06:59:46;;;;;;;19.95;12.18;;;;;;;;;;4973398;28;20589;-68
2023/05/12 07:02:11;;;;;;;20.33;12.90;;;;;;;;;;4972389;28;20241;-68
2023/05/12 07:04:36;;;;;;;27.67;14.25;;;;;;;;;;4970389;28;20259;-68
2023/05/12 07:07:01;;;;;;;24.90;13.25;;;;;;;;;;4971748;28;20215;-69
2023/05/12 07:09:26;;;;;;;25.13;13.20;;;;;;;;;;4971842;28;20191;-68
2023/05/12 07:11:53;;;;;;;27.00;12.90;;;;;;;;;;4971581;28;20207;-69
2023/05/12 07:14:18;;;;;;;23.58;13.60;;;;;;;;;;4971139;28;20314;-68
2023/05/12 07:16:43;;;;;;;25.20;12.57;;;;;;;;;;4971876;28;20204;-67
2023/05/12 07:19:08;;;;;;;24.98;12.55;;;;;;;;;;4970926;28;20180;-68
2023/05/12 07:21:34;;;;;;;20.02;11.55;;;;;;;;;;4970591;28;20188;-68
2023/05/12 07:23:59;;;;;;;20.75;11.93;;;;;;;;;;4970587;28;20848;-68
2023/05/12 07:26:25;;;;;;;23.25;12.27;;;;;;;;;;4976032;28;20266;-69
2023/05/12 07:28:50;;;;;;;20.13;11.20;;;;;;;;;;4967783;28;20793;-68
2023/05/12 07:31:16;;;;;;;20.33;11.48;;;;;;;;;;4971123;28;20458;-68
2023/05/12 07:33:41;;;;;;;20.27;12.05;;;;;;;;;;4985063;28;20294;-68
2023/05/12 07:36:07;;;;;;;22.08;12.07;;;;;;;;;;4973455;28;20180;-68
2023/05/12 07:38:33;;;;;;;22.05;13.15;;;;;;;;;;4976317;28;20291;-68
2023/05/12 07:40:59;;;;;;;18.67;11.98;;;;;;;;;;4969141;28;20190;-68
2023/05/12 07:43:24;;;;;;;20.00;11.60;;;;;;;;;;4970729;28;20237;-68
2023/05/12 07:45:49;;;;;;;18.58;11.20;;;;;;;;;;4972550;28;20192;-68
2023/05/12 07:48:14;;;;;;;19.20;11.23;;;;;;;;;;4969753;28;20207;-69
2023/05/12 07:50:40;;;;;;;18.25;12.68;;;;;;;;;;4970049;28;20192;-69
2023/05/12 07:53:05;;;;;;;20.15;12.00;;;;;;;;;;4970682;28;20218;-69
2023/05/12 07:55:33;;;;;;;18.02;12.77;;;;;;;;;;4971969;28;20186;-69
2023/05/12 07:57:59;;;;;;;23.77;12.38;;;;;;;;;;4973511;28;20204;-68
2023/05/12 08:00:24;;;;;;;17.33;10.93;;;;;;;;;;4970023;28;20242;-68
2023/05/12 08:02:49;;;;;;;18.00;11.27;;;;;;;;;;4969003;28;20187;-69
2023/05/12 08:05:15;;;;;;;19.08;11.82;;;;;;;;;;4968867;28;20183;-68
2023/05/12 08:07:42;;;;;;;19.02;12.15;;;;;;;;;;4972278;28;20580;-68
2023/05/12 08:10:08;;;;;;;13.55;9.88;;;;;;;;;;4971402;28;20215;-69
2023/05/12 08:12:33;;;;;;;20.05;11.77;;;;;;;;;;4969086;28;20326;-67
2023/05/12 08:14:58;;;;;;;17.42;11.77;;;;;;;;;;4972146;28;20184;-67
2023/05/12 08:17:23;;;;;;;15.63;10.35;;;;;;;;;;4971798;28;20203;-68
2023/05/12 08:19:49;;;;;;;17.75;10.50;;;;;;;;;;4971794;28;20556;-67
2023/05/12 08:22:14;;;;;;;13.57;9.20;;;;;;;;;;4968960;28;20179;-67
2023/05/12 08:24:39;;;;;;;14.73;9.45;;;;;;;;;;4971752;28;20245;-67
2023/05/12 08:27:04;;;;;;;13.20;9.55;;;;;;;;;;4970590;28;22021;-67
2023/05/12 08:29:30;;;;;;;16.77;9.57;;;;;;;;;;4970705;28;20725;-68
2023/05/12 08:31:56;;;;;;;14.27;9.38;;;;;;;;;;4970242;28;20491;-68
2023/05/12 08:34:21;;;;;;;13.23;9.45;;;;;;;;;;4969400;28;20183;-68
2023/05/12 08:36:46;;;;;;;12.13;8.38;;;;;;;;;;4969401;28;20759;-67
2023/05/12 08:39:12;;;;;;;11.63;8.98;;;;;;;;;;4970324;28;20180;-68
2023/05/12 08:41:55;;;;;;;11.95;8.70;;;;;;;;;;4969217;28;20267;-68
2023/05/12 08:44:21;;;;;;;12.52;7.97;;;;;;;;;;4971318;28;20246;-67
2023/05/12 08:46:47;;;;;;;9.02;7.30;;;;;;;;;;4974358;28;20239;-68
2023/05/12 08:49:15;;;;;;;9.57;7.15;;;;;;;;;;4970414;28;20270;-67
2023/05/12 08:51:41;;;;;;;10.18;7.05;;;;;;;;;;4969154;28;20322;-67
2023/05/12 08:54:07;;;;;;;10.93;7.25;;;;;;;;;;4969448;28;20570;-67
2023/05/12 08:56:33;;;;;;;9.32;7.05;;;;;;;;;;4973321;28;20476;-67
2023/05/12 08:58:59;;;;;;;8.40;6.68;;;;;;;;;;4969624;28;20179;-68
2023/05/12 09:01:25;;;;;;;9.25;7.07;;;;;;;;;;4958596;28;21762;-68
2023/05/12 09:03:51;;;;;;;12.18;7.53;;;;;;;;;;4966461;28;20238;-68
2023/05/12 09:06:16;;;;;;;11.95;6.30;;;;;;;;;;4969433;28;20411;-68
2023/05/12 09:08:42;;;;;;;8.00;6.75;;;;;;;;;;4969823;28;20234;-68
2023/05/12 09:11:09;;;;;;;10.32;7.50;;;;;;;;;;4970266;28;20180;-67
2023/05/12 09:13:39;;;;;;;10.23;6.18;;;;;;;;;;4968060;28;20285;-68
2023/05/12 09:16:05;;;;;;;10.45;6.90;;;;;;;;;;4970371;28;20218;-68
2023/05/12 09:18:42;;;;;;;8.55;6.63;;;;;;;;;;4967530;28;20200;-68
2023/05/12 09:21:08;;;;;;;8.30;6.72;;;;;;;;;;4966952;28;20176;-68
2023/05/12 09:23:33;;;;;;;8.30;6.80;;;;;;;;;;4969775;28;20618;-68
2023/05/12 09:26:00;;;;;;;11.73;6.80;;;;;;;;;;4969681;28;20441;-67
2023/05/12 09:28:33;;;;;;;7.68;5.88;;;;;;;;;;4968393;28;20476;-67
2023/05/12 09:30:58;;;;;;;10.48;7.18;;;;;;;;;;4967338;28;20195;-68
2023/05/12 09:33:24;;;;;;;7.13;5.07;;;;;;;;;;4972579;28;20216;-67
2023/05/12 09:35:49;;;;;;;6.43;4.85;;;;;;;;;;4969020;28;20497;-67
2023/05/12 09:38:14;;;;;;;6.05;4.68;;;;;;;;;;4967222;28;20471;-67
2023/05/12 09:40:39;;;;;;;8.05;5.03;;;;;;;;;;4968640;28;20763;-67
2023/05/12 09:43:06;;;;;;;8.98;4.53;;;;;;;;;;4966221;28;20179;-67
2023/05/12 09:45:35;;;;;;;6.50;4.22;;;;;;;;;;4972277;28;20660;-67
2023/05/12 09:48:10;;;;;;;9.63;4.93;;;;;;;;;;4969216;28;20591;-67
2023/05/12 09:50:45;;;;;;;7.15;5.00;;;;;;;;;;4970018;28;20183;-67
2023/05/12 09:53:10;;;;;;;6.85;5.03;;;;;;;;;;4967419;28;20203;-67
2023/05/12 09:55:36;;;;;;;7.75;5.03;;;;;;;;;;4969134;28;20176;-67
2023/05/12 09:58:03;;;;;;;10.75;5.80;;;;;;;;;;4968060;28;20265;-67
2023/05/12 10:00:28;;;;;;;5.68;4.35;;;;;;;;;;4970957;28;20532;-67
2023/05/12 10:02:53;;;;;;;7.03;3.90;;;;;;;;;;4972176;28;20730;-67
2023/05/12 10:05:19;;;;;;;5.10;4.30;;;;;;;;;;4971681;28;20184;-68
2023/05/12 10:07:47;;;;;;;6.80;4.70;;;;;;;;;;4972790;28;20222;-67
2023/05/12 10:10:20;;;;;;;8.05;4.97;;;;;;;;;;4979509;28;20180;-67
2023/05/12 10:12:45;;;;;;;7.05;4.90;;;;;;;;;;4971711;28;20222;-67
2023/05/12 10:15:11;;;;;;;6.40;5.10;;;;;;;;;;4973172;28;20175;-67
2023/05/12 10:17:38;;;;;;;9.05;4.90;;;;;;;;;;4972179;28;20203;-67
2023/05/12 10:20:05;;;;;;;8.18;5.25;;;;;;;;;;4970678;28;20188;-67
2023/05/12 10:22:32;;;;;;;5.03;4.40;;;;;;;;;;4970430;28;20760;-68
2023/05/12 10:24:58;;;;;;;3.75;3.00;;;;;;;;;;4973130;28;20191;-67
2023/05/12 10:27:24;;;;;;;4.72;3.10;;;;;;;;;;4971417;28;20219;-67
2023/05/12 10:29:49;;;;;;;3.90;3.10;;;;;;;;;;4970859;28;20184;-67
2023/05/12 10:32:15;;;;;;;4.10;3.47;;;;;;;;;;4972224;28;20892;-67
2023/05/12 10:34:40;;;;;;;4.15;2.85;;;;;;;;;;4971000;28;20207;-67
2023/05/12 10:37:08;;;;;;;3.72;3.20;;;;;;;;;;4972303;28;20468;-68
2023/05/12 10:39:34;;;;;;;6.40;3.38;;;;;;;;;;4971890;28;20553;-67
2023/05/12 10:42:00;;;;;;;4.38;2.92;;;;;;;;;;4972118;28;20177;-67
2023/05/12 10:44:26;;;;;;;4.90;3.92;;;;;;;;;;4973738;28;20219;-67
2023/05/12 10:46:56;;;;;;;5.10;4.10;;;;;;;;;;4971296;28;20727;-68
2023/05/12 10:49:30;;;;;;;5.10;3.78;;;;;;;;;;4972893;28;20185;-67
2023/05/12 10:51:58;;;;;;;4.78;4.18;;;;;;;;;;4973131;28;20816;-67
2023/05/12 10:54:24;;;;;;;3.72;3.30;;;;;;;;;;4973392;28;20195;-67
2023/05/12 10:56:49;;;;;;;4.97;2.90;;;;;;;;;;4969693;28;20204;-67
2023/05/12 10:59:18;;;;;;;3.78;3.28;;;;;;;;;;4971594;28;20596;-67
2023/05/12 11:02:02;;;;;;;3.33;3.03;;;;;;;;;;4988118;28;20297;-67
2023/05/12 11:04:36;;;;;;;3.08;2.58;;;;;;;;;;4972058;28;20184;-67
2023/05/12 11:07:03;;;;;;;4.25;2.72;;;;;;;;;;4970608;28;20225;-67
2023/05/12 11:09:28;;;;;;;2.55;2.13;;;;;;;;;;4972090;28;20188;-68
2023/05/12 11:11:53;;;;;;;3.63;2.72;;;;;;;;;;4968624;28;20184;-67
2023/05/12 11:14:19;;;;;;;3.67;2.75;;;;;;;;;;4969580;28;20184;-68
2023/05/12 11:16:45;;;;;;;4.38;3.00;;;;;;;;;;4969145;28;20195;-68
2023/05/12 11:19:10;;;;;;;2.25;2.00;;;;;;;;;;4970640;28;20211;-67
2023/05/12 11:21:36;;;;;;;3.58;2.33;;;;;;;;;;4969852;28;20198;-67
2023/05/12 11:24:01;;;;;;;2.92;2.60;;;;;;;;;;4975111;28;20179;-67
2023/05/12 11:26:29;;;;;;;4.13;2.08;;;;;;;;;;4972882;28;20206;-68
2023/05/12 11:28:58;;;;;;;2.60;1.70;;;;;;;;;;4972194;28;20222;-67
2023/05/12 11:31:23;;;;;;;2.50;2.30;;;;;;;;;;4971077;28;20192;-67
2023/05/12 11:33:49;;;;;;;3.97;1.92;;;;;;;;;;4971219;28;20262;-66
2023/05/12 11:36:20;;;;;;;3.97;2.38;;;;;;;;;;4971124;28;20191;-67
2023/05/12 11:38:51;;;;;;;2.97;2.35;;;;;;;;;;4972027;28;20311;-67
2023/05/12 11:41:23;;;;;;;2.72;2.00;;;;;;;;;;4973052;28;20180;-67
2023/05/12 11:43:48;;;;;;;2.15;1.95;;;;;;;;;;4975327;28;21728;-67
2023/05/12 11:46:22;;;;;;;2.30;1.90;;;;;;;;;;4975006;28;20195;-67
2023/05/12 11:48:53;;;;;;;2.92;1.60;;;;;;;;;;4969933;28;20537;-68
2023/05/12 11:51:18;;;;;;;2.60;1.45;;;;;;;;;;4971601;28;20443;-67
2023/05/12 11:53:43;;;;;;;2.85;1.48;;;;;;;;;;4971109;28;20196;-67
2023/05/12 11:56:16;;;;;;;4.20;2.00;;;;;;;;;;4970754;28;20227;-67
2023/05/12 11:58:50;;;;;;;1.75;1.45;;;;;;;;;;4971200;28;20531;-67
2023/05/12 12:01:15;;;;;;;1.52;1.30;;;;;;;;;;4970169;28;20278;-67
2023/05/12 12:03:45;;;;;;;1.50;1.40;;;;;;;;;;4969062;28;20239;-67
2023/05/12 12:06:10;;;;;;;1.65;1.52;;;;;;;;;;4997966;28;20431;-67
2023/05/12 12:08:39;;;;;;;2.37;1.73;;;;;;;;;;4985856;22;20227;-74
2023/05/12 12:11:06;;;;;;;3.53;1.65;;;;;;;;;;4971625;28;20417;-74
2023/05/12 12:13:31;;;;;;;3.00;1.85;;;;;;;;;;4972832;28;20221;-74
2023/05/12 12:15:56;;;;;;;1.90;1.27;;;;;;;;;;4979305;28;20191;-73
2023/05/12 12:18:21;;;;;;;1.97;1.70;;;;;;;;;;4972780;28;20213;-73
2023/05/12 12:20:47;;;;;;;2.53;1.57;;;;;;;;;;4981658;28;20456;-73
2023/05/12 12:23:12;;;;;;;1.60;1.50;;;;;;;;;;4989457;28;20473;-73
2023/05/12 12:25:37;;;;;;;5.03;2.10;;;;;;;;;;4970975;28;20642;-74
2023/05/12 12:28:03;;;;;;;2.50;1.80;;;;;;;;;;4969521;28;20941;-73
2023/05/12 12:30:28;;;;;;;2.05;1.55;;;;;;;;;;4973062;28;20961;-73
2023/05/12 12:32:53;;;;;;;2.10;1.40;;;;;;;;;;4970519;28;20216;-74
2023/05/12 12:35:18;;;;;;;2.90;1.67;;;;;;;;;;4969590;28;20297;-73
2023/05/12 12:37:50;;;;;;;2.47;1.43;;;;;;;;;;4973386;28;20979;-73
2023/05/12 12:40:15;;;;;;;3.50;1.90;;;;;;;;;;4970692;28;20514;-73
2023/05/12 12:42:40;;;;;;;3.40;2.15;;;;;;;;;;4971495;28;20184;-74
2023/05/12 12:45:07;;;;;;;2.15;1.67;;;;;;;;;;4970915;28;20275;-74
2023/05/12 12:47:32;;;;;;;2.67;1.83;;;;;;;;;;4983241;28;20231;-74
2023/05/12 12:49:58;;;;;;;2.00;1.67;;;;;;;;;;4972164;28;20262;-73
2023/05/12 12:52:23;;;;;;;6.50;2.25;;;;;;;;;;4975350;28;20290;-74
2023/05/12 12:54:48;;;;;;;2.67;2.23;;;;;;;;;;4972462;28;20190;-73
2023/05/12 12:57:14;;;;;;;2.03;1.57;;;;;;;;;;4972723;28;20548;-73
2023/05/12 12:59:39;;;;;;;2.72;2.30;;;;;;;;;;4970527;28;20800;-73
2023/05/12 13:02:04;;;;;;;4.13;2.00;;;;;;;;;;4969231;28;20183;-74
2023/05/12 13:04:30;;;;;;;2.47;1.90;;;;;;;;;;4973082;28;20183;-73
2023/05/12 13:06:55;;;;;;;2.08;1.73;;;;;;;;;;4970006;28;20203;-73
2023/05/12 13:09:20;;;;;;;3.67;1.95;;;;;;;;;;4971529;28;20195;-73
2023/05/12 13:11:46;;;;;;;2.78;1.90;;;;;;;;;;4976553;28;20190;-74
2023/05/12 13:14:11;;;;;;;2.58;1.92;;;;;;;;;;4972133;28;20211;-74
2023/05/12 13:16:36;;;;;;;1.70;1.50;;;;;;;;;;4971428;28;20250;-74
2023/05/12 13:19:01;;;;;;;2.40;1.80;;;;;;;;;;4973111;28;20441;-74
2023/05/12 13:21:27;;;;;;;3.17;1.75;;;;;;;;;;4972717;28;20947;-73
2023/05/12 13:23:52;;;;;;;1.70;1.60;;;;;;;;;;4975370;28;20202;-74
2023/05/12 13:26:17;;;;;;;4.00;1.83;;;;;;;;;;4975583;28;20179;-73
2023/05/12 13:28:42;;;;;;;1.57;1.47;;;;;;;;;;4971131;28;20448;-73
2023/05/12 13:31:08;;;;;;;1.83;1.60;;;;;;;;;;4970305;28;20440;-73
2023/05/12 13:33:33;;;;;;;3.17;1.92;;;;;;;;;;4970770;28;20221;-73
2023/05/12 13:35:58;;;;;;;6.25;3.22;;;;;;;;;;4971537;28;20711;-73
2023/05/12 13:38:23;;;;;;;3.58;2.38;;;;;;;;;;4972164;28;20229;-73
2023/05/12 13:40:49;;;;;;;2.60;1.97;;;;;;;;;;4988351;28;20262;-73
2023/05/12 13:43:15;;;;;;;2.72;2.22;;;;;;;;;;4974186;28;20524;-73
2023/05/12 13:45:40;;;;;;;2.60;2.17;;;;;;;;;;4975021;28;20266;-73
2023/05/12 13:48:05;;;;;;;2.65;1.77;;;;;;;;;;4979926;28;20437;-74
2023/05/12 13:50:30;;;;;;;2.88;1.45;;;;;;;;;;4987477;28;20187;-74
2023/05/12 13:52:56;;;;;;;1.83;1.65;;;;;;;;;;4992020;28;20203;-74
2023/05/12 13:55:21;;;;;;;5.50;2.07;;;;;;;;;;4989728;28;20193;-74
2023/05/12 13:57:46;;;;;;;2.60;2.15;;;;;;;;;;4984185;28;21513;-73
2023/05/12 14:00:12;;;;;;;2.93;1.97;;;;;;;;;;4972495;28;20238;-73
2023/05/12 14:02:37;;;;;;;3.78;2.03;;;;;;;;;;4985278;28;20433;-73
2023/05/12 14:05:03;;;;;;;2.47;2.05;;;;;;;;;;4971797;28;20195;-74
2023/05/12 14:07:28;;;;;;;8.90;3.05;;;;;;;;;;4972771;28;20286;-74
2023/05/12 14:09:53;;;;;;;2.53;2.07;;;;;;;;;;4985455;28;20830;-74
2023/05/12 14:12:18;;;;;;;4.20;1.83;;;;;;;;;;4971557;28;20857;-74
2023/05/12 14:14:48;;;;;;;2.80;2.50;;;;;;;;;;4970776;28;20441;-74
2023/05/12 14:17:14;;;;;;;2.00;1.83;;;;;;;;;;4970195;28;20487;-74
2023/05/12 14:19:39;;;;;;;3.03;2.58;;;;;;;;;;4971051;28;20254;-74
2023/05/12 14:22:05;;;;;;;3.42;2.22;;;;;;;;;;4971478;28;20640;-73
2023/05/12 14:24:30;;;;;;;2.20;2.00;;;;;;;;;;4976637;28;20177;-74
2023/05/12 14:26:55;;;;;;;5.53;2.33;;;;;;;;;;4968826;28;20180;-73
2023/05/12 14:29:20;;;;;;;3.08;2.13;;;;;;;;;;4970958;28;20519;-73